createdAt,value
2018-02-09T00:00:15.414Z,46.10
2018-02-09T00:01:15.402Z,46.30
2018-02-09T00:02:15.388Z,46.00
2018-02-09T00:03:15.375Z,45.30
2018-02-09T00:04:15.362Z,46.70
2018-02-09T00:05:15.349Z,47.10
2018-02-09T00:06:15.338Z,45.40
2018-02-09T00:07:15.323Z,46.50
2018-02-09T00:08:15.309Z,45.50
2018-02-09T00:09:15.296Z,45.70
2018-02-09T00:10:15.289Z,47.10
2018-02-09T00:11:15.271Z,46.80
2018-02-09T00:12:15.258Z,45.90
2018-02-09T00:13:15.244Z,46.80
2018-02-09T00:14:15.233Z,46.80
2018-02-09T00:15:15.218Z,45.80
2018-02-09T00:16:15.203Z,45.20
2018-02-09T00:17:15.192Z,46.80
2018-02-09T00:18:15.179Z,46.60
2018-02-09T00:19:15.167Z,46.70
2018-02-09T00:20:15.151Z,46.00
2018-02-09T00:21:15.141Z,46.30
2018-02-09T00:22:15.130Z,47.00
2018-02-09T00:23:15.117Z,46.30
2018-02-09T00:24:15.100Z,46.70
2018-02-09T00:25:15.082Z,46.30
2018-02-09T00:26:15.077Z,46.90
2018-02-09T00:27:15.063Z,46.60
2018-02-09T00:28:15.050Z,47.40
2018-02-09T00:29:15.036Z,46.30
2018-02-09T00:30:15.023Z,46.20
2018-02-09T00:31:15.011Z,47.00
2018-02-09T00:32:14.995Z,46.30
2018-02-09T00:33:14.987Z,45.90
2018-02-09T00:34:14.971Z,46.20
2018-02-09T00:35:14.954Z,47.70
2018-02-09T00:36:14.942Z,46.80
2018-02-09T00:37:14.933Z,47.90
2018-02-09T00:38:14.918Z,46.90
2018-02-09T00:39:14.904Z,46.30
2018-02-09T00:40:14.891Z,45.50
2018-02-09T00:41:14.877Z,46.50
2018-02-09T00:42:14.865Z,46.00
2018-02-09T00:43:14.856Z,45.40
2018-02-09T00:44:14.839Z,47.10
2018-02-09T00:45:14.826Z,46.90
2018-02-09T00:46:14.813Z,47.70
2018-02-09T00:47:14.800Z,46.30
2018-02-09T00:48:14.785Z,47.60
2018-02-09T00:49:14.773Z,47.50
2018-02-09T00:50:14.761Z,49.10
2018-02-09T00:51:14.743Z,48.00
2018-02-09T00:52:14.732Z,47.10
2018-02-09T00:53:14.723Z,48.20
2018-02-09T00:54:14.709Z,47.20
2018-02-09T00:55:14.697Z,48.00
2018-02-09T00:56:14.681Z,48.30
2018-02-09T00:57:14.669Z,48.40
2018-02-09T00:58:14.656Z,49.20
2018-02-09T00:59:14.643Z,48.20
2018-02-09T01:00:14.629Z,48.20
2018-02-09T01:01:14.615Z,47.90
2018-02-09T01:02:14.605Z,47.90
2018-02-09T01:03:14.590Z,48.70
2018-02-09T01:04:14.578Z,49.60
2018-02-09T01:05:14.564Z,46.40
2018-02-09T01:06:14.549Z,47.00
2018-02-09T01:07:14.536Z,47.00
2018-02-09T01:08:14.527Z,48.20
2018-02-09T01:09:14.512Z,48.10
2018-02-09T01:10:14.496Z,48.30
2018-02-09T01:11:14.484Z,49.10
2018-02-09T01:12:14.472Z,50.40
2018-02-09T01:13:14.455Z,49.00
2018-02-09T01:14:14.453Z,49.20
2018-02-09T01:15:14.431Z,48.60
2018-02-09T01:16:14.421Z,48.10
2018-02-09T01:17:14.404Z,48.30
2018-02-09T01:18:14.439Z,49.00
2018-02-09T01:19:14.379Z,48.10
2018-02-09T01:20:14.366Z,48.80
2018-02-09T01:21:14.361Z,49.50
2018-02-09T01:22:14.339Z,48.30
2018-02-09T01:23:14.323Z,48.10
2018-02-09T01:24:14.315Z,47.60
2018-02-09T01:25:14.301Z,47.60
2018-02-09T01:26:14.287Z,46.80
2018-02-09T01:27:14.271Z,48.50
2018-02-09T01:28:14.260Z,49.00
2018-02-09T01:29:14.247Z,48.70
2018-02-09T01:30:14.236Z,48.50
2018-02-09T01:31:14.225Z,49.80
2018-02-09T01:32:14.205Z,48.50
2018-02-09T01:33:14.194Z,49.00
2018-02-09T01:34:14.180Z,48.80
2018-02-09T01:35:14.166Z,47.60
2018-02-09T01:36:14.153Z,48.00
2018-02-09T01:37:14.142Z,47.70
2018-02-09T01:38:14.128Z,47.60
2018-02-09T01:39:14.113Z,47.80
2018-02-09T01:40:14.101Z,47.50
2018-02-09T01:41:14.090Z,49.40
2018-02-09T01:42:14.074Z,49.30
2018-02-09T01:43:14.060Z,48.20
2018-02-09T01:44:14.048Z,47.80
2018-02-09T01:45:14.034Z,48.20
2018-02-09T01:46:14.021Z,46.90
2018-02-09T01:47:14.008Z,47.80
2018-02-09T01:48:13.995Z,46.60
2018-02-09T01:49:13.982Z,47.40
2018-02-09T01:50:13.970Z,47.20
2018-02-09T01:51:13.956Z,48.30
2018-02-09T01:52:13.941Z,46.50
2018-02-09T01:53:13.928Z,46.40
2018-02-09T01:54:13.915Z,47.80
2018-02-09T01:55:13.904Z,46.80
2018-02-09T01:56:13.887Z,46.90
2018-02-09T01:57:13.876Z,46.90
2018-02-09T01:58:13.863Z,46.80
2018-02-09T01:59:13.846Z,45.90
2018-02-09T02:00:13.836Z,47.00
2018-02-09T02:01:13.821Z,46.10
2018-02-09T02:02:13.810Z,46.30
2018-02-09T02:03:13.794Z,46.50
2018-02-09T02:04:13.782Z,45.70
2018-02-09T02:05:13.769Z,46.50
2018-02-09T02:06:13.757Z,46.10
2018-02-09T02:07:13.741Z,45.80
2018-02-09T02:08:13.729Z,46.40
2018-02-09T02:09:13.716Z,46.60
2018-02-09T02:10:13.706Z,46.60
2018-02-09T02:11:13.691Z,46.90
2018-02-09T02:12:13.675Z,45.50
2018-02-09T02:13:13.660Z,45.80
2018-02-09T02:14:13.649Z,45.90
2018-02-09T02:15:13.635Z,45.10
2018-02-09T02:16:13.623Z,45.90
2018-02-09T02:17:13.614Z,45.40
2018-02-09T02:18:13.596Z,47.00
2018-02-09T02:19:13.584Z,46.60
2018-02-09T02:20:13.569Z,47.00
2018-02-09T02:21:13.555Z,47.10
2018-02-09T02:22:13.543Z,47.80
2018-02-09T02:23:13.529Z,46.70
2018-02-09T02:24:13.515Z,47.20
2018-02-09T02:25:13.501Z,46.20
2018-02-09T02:26:13.491Z,46.50
2018-02-09T02:27:13.478Z,46.20
2018-02-09T02:28:13.462Z,48.10
2018-02-09T02:29:13.449Z,46.20
2018-02-09T02:30:13.436Z,47.50
2018-02-09T02:31:13.420Z,47.00
2018-02-09T02:32:13.409Z,46.70
2018-02-09T02:33:13.393Z,46.50
2018-02-09T02:34:13.382Z,46.10
2018-02-09T02:35:13.368Z,46.60
2018-02-09T02:36:13.356Z,47.80
2018-02-09T02:37:13.341Z,46.50
2018-02-09T02:38:13.327Z,46.20
2018-02-09T02:39:13.315Z,45.30
2018-02-09T02:40:13.304Z,47.50
2018-02-09T02:41:13.287Z,46.40
2018-02-09T02:42:13.274Z,47.10
2018-02-09T02:43:13.260Z,47.00
2018-02-09T02:44:13.254Z,47.50
2018-02-09T02:45:13.234Z,48.80
2018-02-09T02:46:13.221Z,47.70
2018-02-09T02:47:13.207Z,47.80
2018-02-09T02:48:13.196Z,47.20
2018-02-09T02:49:13.182Z,47.60
2018-02-09T02:50:13.167Z,47.20
2018-02-09T02:51:13.155Z,47.80
2018-02-09T02:52:13.148Z,47.30
2018-02-09T02:53:13.125Z,47.00
2018-02-09T02:54:13.111Z,47.80
2018-02-09T02:55:13.110Z,48.20
2018-02-09T02:56:13.084Z,48.40
2018-02-09T02:57:13.077Z,47.40
2018-02-09T02:58:13.059Z,47.10
2018-02-09T02:59:13.047Z,46.70
2018-02-09T03:00:13.032Z,46.60
2018-02-09T03:01:13.021Z,48.30
2018-02-09T03:02:13.009Z,46.60
2018-02-09T03:03:12.991Z,46.70
2018-02-09T03:04:12.978Z,46.90
2018-02-09T03:05:12.983Z,48.20
2018-02-09T03:06:12.953Z,48.10
2018-02-09T03:07:12.941Z,47.50
2018-02-09T03:08:12.925Z,47.20
2018-02-09T03:09:12.912Z,46.50
2018-02-09T03:10:12.902Z,46.40
2018-02-09T03:11:12.883Z,45.80
2018-02-09T03:12:12.873Z,46.20
2018-02-09T03:13:12.859Z,46.20
2018-02-09T03:14:12.846Z,46.00
2018-02-09T03:15:12.831Z,46.90
2018-02-09T03:16:12.818Z,46.60
2018-02-09T03:17:12.806Z,49.20
2018-02-09T03:18:12.791Z,48.20
2018-02-09T03:19:12.778Z,48.70
2018-02-09T03:20:12.762Z,49.50
2018-02-09T03:21:12.749Z,47.90
2018-02-09T03:22:12.736Z,47.20
2018-02-09T03:23:12.735Z,48.70
2018-02-09T03:24:12.710Z,48.50
2018-02-09T03:25:12.696Z,50.80
2018-02-09T03:26:12.683Z,50.30
2018-02-09T03:27:12.668Z,51.60
2018-02-09T03:28:12.655Z,50.90
2018-02-09T03:29:12.642Z,49.90
2018-02-09T03:30:12.629Z,51.40
2018-02-09T03:31:12.615Z,54.20
2018-02-09T03:32:12.604Z,50.80
2018-02-09T03:33:12.588Z,51.40
2018-02-09T03:34:12.578Z,51.50
2018-02-09T03:35:12.559Z,52.70
2018-02-09T03:36:12.548Z,51.80
2018-02-09T03:37:12.533Z,51.00
2018-02-09T03:38:12.521Z,52.20
2018-02-09T03:39:12.510Z,52.30
2018-02-09T03:40:12.493Z,51.70
2018-02-09T03:41:12.480Z,53.60
2018-02-09T03:42:12.465Z,52.40
2018-02-09T03:43:12.451Z,50.90
2018-02-09T03:44:12.441Z,51.70
2018-02-09T03:45:12.424Z,50.10
2018-02-09T03:46:12.411Z,48.70
2018-02-09T03:47:12.398Z,47.60
2018-02-09T03:48:12.384Z,48.30
2018-02-09T03:49:12.377Z,48.10
2018-02-09T03:50:12.358Z,46.90
2018-02-09T03:51:12.342Z,48.60
2018-02-09T03:52:12.332Z,47.40
2018-02-09T03:53:12.316Z,47.90
2018-02-09T03:54:12.305Z,47.40
2018-02-09T03:55:12.286Z,47.90
2018-02-09T03:56:12.271Z,48.30
2018-02-09T03:57:12.262Z,46.90
2018-02-09T03:58:12.249Z,48.90
2018-02-09T03:59:12.233Z,48.90
2018-02-09T04:00:12.219Z,48.40
2018-02-09T04:01:12.208Z,49.60
2018-02-09T04:02:12.194Z,49.70
2018-02-09T04:03:12.180Z,50.90
2018-02-09T04:04:12.165Z,50.20
2018-02-09T04:05:12.150Z,49.60
2018-02-09T04:06:12.140Z,51.00
2018-02-09T04:07:12.132Z,51.50
2018-02-09T04:08:12.111Z,52.80
2018-02-09T04:09:12.099Z,52.90
2018-02-09T04:10:12.084Z,52.80
2018-02-09T04:11:12.070Z,51.60
2018-02-09T04:12:12.058Z,52.30
2018-02-09T04:13:12.042Z,51.30
2018-02-09T04:14:12.032Z,48.50
2018-02-09T04:15:12.013Z,48.50
2018-02-09T04:16:12.003Z,49.10
2018-02-09T04:17:11.988Z,50.80
2018-02-09T04:18:11.978Z,49.90
2018-02-09T04:19:11.960Z,50.30
2018-02-09T04:20:11.945Z,49.20
2018-02-09T04:21:11.936Z,49.80
2018-02-09T04:22:11.918Z,52.30
2018-02-09T04:23:11.909Z,52.50
2018-02-09T04:24:11.893Z,51.70
2018-02-09T04:25:11.883Z,50.60
2018-02-09T04:26:11.865Z,51.20
2018-02-09T04:27:11.852Z,51.80
2018-02-09T04:28:11.839Z,51.20
2018-02-09T04:29:11.823Z,50.90
2018-02-09T04:30:11.812Z,50.60
2018-02-09T04:31:11.796Z,50.70
2018-02-09T04:32:11.787Z,51.60
2018-02-09T04:33:11.768Z,51.30
2018-02-09T04:34:11.755Z,52.30
2018-02-09T04:35:11.740Z,50.70
2018-02-09T04:36:11.728Z,51.90
2018-02-09T04:37:11.713Z,51.60
2018-02-09T04:38:11.701Z,53.00
2018-02-09T04:39:11.689Z,52.10
2018-02-09T04:40:11.671Z,50.50
2018-02-09T04:41:11.660Z,53.40
2018-02-09T04:42:11.651Z,54.60
2018-02-09T04:43:11.638Z,52.70
2018-02-09T04:44:11.618Z,53.90
2018-02-09T04:45:11.602Z,53.40
2018-02-09T04:46:11.592Z,52.10
2018-02-09T04:47:11.578Z,51.60
2018-02-09T04:48:11.572Z,49.70
2018-02-09T04:49:11.548Z,51.40
2018-02-09T04:50:11.536Z,49.80
2018-02-09T04:51:11.523Z,50.00
2018-02-09T04:52:11.510Z,50.40
2018-02-09T04:53:11.495Z,51.20
2018-02-09T04:54:11.478Z,50.80
2018-02-09T04:55:11.465Z,49.60
2018-02-09T04:56:11.452Z,50.90
2018-02-09T04:57:11.441Z,50.40
2018-02-09T04:58:11.427Z,51.60
2018-02-09T04:59:11.417Z,50.40
2018-02-09T05:00:11.398Z,53.30
2018-02-09T05:01:11.382Z,51.50
2018-02-09T05:02:11.372Z,52.40
2018-02-09T05:03:11.359Z,50.30
2018-02-09T05:04:11.345Z,50.10
2018-02-09T05:05:11.328Z,50.40
2018-02-09T05:06:11.318Z,50.20
2018-02-09T05:07:11.304Z,50.70
2018-02-09T05:08:11.293Z,49.00
2018-02-09T05:09:11.273Z,51.00
2018-02-09T05:10:11.259Z,50.20
2018-02-09T05:11:11.247Z,50.70
2018-02-09T05:12:11.233Z,51.40
2018-02-09T05:13:11.222Z,54.40
2018-02-09T05:14:11.205Z,53.40
2018-02-09T05:15:11.192Z,54.80
2018-02-09T05:16:11.182Z,51.90
2018-02-09T05:17:11.165Z,52.70
2018-02-09T05:18:11.150Z,52.10
2018-02-09T05:19:11.138Z,53.60
2018-02-09T05:20:11.123Z,53.90
2018-02-09T05:21:11.106Z,52.00
2018-02-09T05:22:11.094Z,51.20
2018-02-09T05:23:11.082Z,52.60
2018-02-09T05:24:11.066Z,51.00
2018-02-09T05:25:11.055Z,51.90
2018-02-09T05:26:11.040Z,52.30
2018-02-09T05:27:11.027Z,52.80
2018-02-09T05:28:11.013Z,53.10
2018-02-09T05:29:11.002Z,52.80
2018-02-09T05:30:10.983Z,55.10
2018-02-09T05:31:10.967Z,55.40
2018-02-09T05:32:10.956Z,53.20
2018-02-09T05:33:10.943Z,53.10
2018-02-09T05:34:10.930Z,52.10
2018-02-09T05:35:10.918Z,51.60
2018-02-09T05:36:10.902Z,50.30
2018-02-09T05:37:10.940Z,53.50
2018-02-09T05:38:10.874Z,52.40
2018-02-09T05:39:10.860Z,54.90
2018-02-09T05:40:10.847Z,57.20
2018-02-09T05:41:10.833Z,54.50
2018-02-09T05:42:10.827Z,54.30
2018-02-09T05:43:10.803Z,55.10
2018-02-09T05:44:10.789Z,53.50
2018-02-09T05:45:10.772Z,53.80
2018-02-09T05:46:10.763Z,54.50
2018-02-09T05:47:10.749Z,50.20
2018-02-09T05:48:10.737Z,50.60
2018-02-09T05:49:10.721Z,49.50
2018-02-09T05:50:10.710Z,51.70
2018-02-09T05:51:10.693Z,52.90
2018-02-09T05:52:10.680Z,57.40
2018-02-09T05:53:10.665Z,53.10
2018-02-09T05:54:10.652Z,57.90
2018-02-09T05:55:10.638Z,53.90
2018-02-09T05:56:10.623Z,54.30
2018-02-09T05:57:10.627Z,55.60
2018-02-09T05:58:10.597Z,53.30
2018-02-09T05:59:10.583Z,50.80
2018-02-09T06:00:10.568Z,52.10
2018-02-09T06:01:10.556Z,52.50
2018-02-09T06:02:10.543Z,52.40
2018-02-09T06:03:10.527Z,55.40
2018-02-09T06:04:10.521Z,62.00
2018-02-09T06:05:10.501Z,55.50
2018-02-09T06:06:10.486Z,51.60
2018-02-09T06:07:10.470Z,54.60
2018-02-09T06:08:10.458Z,53.20
2018-02-09T06:09:10.445Z,58.40
2018-02-09T06:10:10.430Z,53.10
2018-02-09T06:11:10.417Z,55.40
2018-02-09T06:12:10.403Z,54.50
2018-02-09T06:13:10.390Z,54.50
2018-02-09T06:14:10.375Z,53.60
2018-02-09T06:15:10.361Z,53.40
2018-02-09T06:16:10.347Z,59.70
2018-02-09T06:17:10.348Z,61.50
2018-02-09T06:18:10.319Z,58.80
2018-02-09T06:19:10.305Z,56.10
2018-02-09T06:20:10.290Z,56.90
2018-02-09T06:21:10.276Z,57.90
2018-02-09T06:22:10.262Z,57.80
2018-02-09T06:23:10.249Z,53.90
2018-02-09T06:24:10.235Z,55.20
2018-02-09T06:25:10.218Z,54.70
2018-02-09T06:26:10.207Z,57.30
2018-02-09T06:27:10.194Z,58.00
2018-02-09T06:28:10.180Z,56.30
2018-02-09T06:29:10.168Z,53.20
2018-02-09T06:30:10.151Z,59.70
2018-02-09T06:31:10.138Z,59.70
2018-02-09T06:32:10.128Z,58.70
2018-02-09T06:33:10.113Z,57.10
2018-02-09T06:34:10.097Z,55.90
2018-02-09T06:35:10.081Z,55.60
2018-02-09T06:36:10.067Z,58.10
2018-02-09T06:37:10.054Z,55.20
2018-02-09T06:38:10.042Z,55.60
2018-02-09T06:39:10.028Z,58.00
2018-02-09T06:40:10.010Z,56.10
2018-02-09T06:41:10.007Z,52.80
2018-02-09T06:42:09.988Z,53.30
2018-02-09T06:43:09.970Z,52.50
2018-02-09T06:44:09.957Z,55.30
2018-02-09T06:45:09.942Z,54.20
2018-02-09T06:46:09.929Z,52.80
2018-02-09T06:47:09.916Z,53.70
2018-02-09T06:48:09.901Z,53.90
2018-02-09T06:49:09.886Z,53.60
2018-02-09T06:50:09.877Z,54.40
2018-02-09T06:51:09.858Z,55.30
2018-02-09T06:52:09.865Z,53.90
2018-02-09T06:53:09.830Z,52.20
2018-02-09T06:54:09.817Z,54.10
2018-02-09T06:55:09.803Z,55.00
2018-02-09T06:56:09.792Z,54.60
2018-02-09T06:57:09.782Z,53.80
2018-02-09T06:58:09.764Z,54.00
2018-02-09T06:59:09.745Z,54.50
2018-02-09T07:00:09.756Z,54.20
2018-02-09T07:01:09.722Z,53.70
2018-02-09T07:02:09.708Z,53.30
2018-02-09T07:03:09.690Z,54.20
2018-02-09T07:04:09.675Z,55.50
2018-02-09T07:05:09.665Z,56.80
2018-02-09T07:06:09.651Z,54.30
2018-02-09T07:07:09.637Z,54.50
2018-02-09T07:08:09.621Z,53.40
2018-02-09T07:09:09.610Z,52.20
2018-02-09T07:10:09.595Z,52.40
2018-02-09T07:11:09.579Z,53.20
2018-02-09T07:12:09.572Z,52.40
2018-02-09T07:13:09.551Z,53.30
2018-02-09T07:14:09.538Z,53.70
2018-02-09T07:15:09.536Z,52.90
2018-02-09T07:16:09.512Z,54.10
2018-02-09T07:17:09.497Z,54.80
2018-02-09T07:18:09.483Z,54.30
2018-02-09T07:19:09.469Z,51.80
2018-02-09T07:20:09.458Z,53.30
2018-02-09T07:21:09.445Z,53.20
2018-02-09T07:22:09.428Z,52.70
2018-02-09T07:23:09.416Z,52.40
2018-02-09T07:24:09.403Z,51.30
2018-02-09T07:25:09.388Z,51.90
2018-02-09T07:26:09.374Z,55.10
2018-02-09T07:27:09.359Z,52.50
2018-02-09T07:28:09.346Z,54.40
2018-02-09T07:29:09.333Z,54.40
2018-02-09T07:30:09.321Z,53.90
2018-02-09T07:31:09.304Z,54.20
2018-02-09T07:32:09.313Z,51.10
2018-02-09T07:33:09.280Z,53.80
2018-02-09T07:34:09.265Z,54.30
2018-02-09T07:35:09.252Z,55.40
2018-02-09T07:36:09.237Z,54.60
2018-02-09T07:37:09.225Z,54.30
2018-02-09T07:38:09.210Z,54.30
2018-02-09T07:39:09.199Z,53.70
2018-02-09T07:40:09.183Z,54.20
2018-02-09T07:41:09.172Z,53.20
2018-02-09T07:42:09.158Z,53.80
2018-02-09T07:43:09.143Z,53.20
2018-02-09T07:44:09.129Z,54.90
2018-02-09T07:45:09.116Z,54.40
2018-02-09T07:46:09.103Z,56.80
2018-02-09T07:47:09.088Z,56.20
2018-02-09T07:48:09.075Z,57.00
2018-02-09T07:49:09.062Z,54.80
2018-02-09T07:50:09.049Z,56.20
2018-02-09T07:51:09.035Z,57.10
2018-02-09T07:52:09.023Z,58.70
2018-02-09T07:53:09.009Z,58.50
2018-02-09T07:54:08.995Z,57.90
2018-02-09T07:55:08.982Z,57.80
2018-02-09T07:56:08.969Z,57.00
2018-02-09T07:57:08.953Z,58.80
2018-02-09T07:58:08.949Z,55.70
2018-02-09T07:59:08.928Z,58.30
2018-02-09T08:00:08.918Z,58.60
2018-02-09T08:01:08.902Z,58.10
2018-02-09T08:02:08.887Z,58.90
2018-02-09T08:03:08.877Z,57.60
2018-02-09T08:04:08.862Z,58.70
2018-02-09T08:05:08.848Z,57.90
2018-02-09T08:06:08.837Z,59.10
2018-02-09T08:07:08.823Z,59.40
2018-02-09T08:08:08.818Z,59.40
2018-02-09T08:09:08.798Z,58.50
2018-02-09T08:10:08.786Z,57.80
2018-02-09T08:11:08.809Z,58.60
2018-02-09T08:12:08.759Z,58.00
2018-02-09T08:13:08.751Z,60.60
2018-02-09T08:14:08.733Z,59.80
2018-02-09T08:15:08.720Z,58.70
2018-02-09T08:16:08.712Z,60.00
2018-02-09T08:17:08.694Z,59.80
2018-02-09T08:18:08.684Z,60.60
2018-02-09T08:19:08.670Z,61.10
2018-02-09T08:20:08.654Z,61.20
2018-02-09T08:21:08.643Z,60.90
2018-02-09T08:22:08.632Z,60.60
2018-02-09T08:23:08.618Z,59.80
2018-02-09T08:24:08.608Z,62.90
2018-02-09T08:25:08.596Z,61.10
2018-02-09T08:26:08.579Z,61.00
2018-02-09T08:27:08.568Z,62.60
2018-02-09T08:28:08.556Z,60.40
2018-02-09T08:29:08.543Z,61.00
2018-02-09T08:30:08.534Z,61.00
2018-02-09T08:31:08.524Z,60.80
2018-02-09T08:32:08.505Z,59.60
2018-02-09T08:33:08.494Z,60.50
2018-02-09T08:34:08.482Z,61.10
2018-02-09T08:35:08.480Z,60.30
2018-02-09T08:36:08.456Z,60.20
2018-02-09T08:37:08.445Z,60.40
2018-02-09T08:38:08.432Z,59.80
2018-02-09T08:39:08.419Z,59.50
2018-02-09T08:40:08.417Z,61.30
2018-02-09T08:41:08.402Z,61.60
2018-02-09T08:42:08.383Z,59.50
2018-02-09T08:43:08.372Z,59.40
2018-02-09T08:44:08.357Z,59.60
2018-02-09T08:45:08.347Z,61.50
2018-02-09T08:46:08.338Z,61.60
2018-02-09T08:47:08.323Z,61.30
2018-02-09T08:48:08.347Z,62.00
2018-02-09T08:49:08.301Z,61.10
2018-02-09T08:50:08.285Z,60.90
2018-02-09T08:51:08.278Z,59.90
2018-02-09T08:52:08.262Z,59.50
2018-02-09T08:53:08.251Z,61.10
2018-02-09T08:54:08.240Z,61.70
2018-02-09T08:55:08.227Z,61.90
2018-02-09T08:56:08.214Z,62.00
2018-02-09T08:57:08.205Z,61.50
2018-02-09T08:58:08.194Z,61.90
2018-02-09T08:59:08.180Z,61.20
2018-02-09T09:00:08.168Z,62.00
2018-02-09T09:01:08.156Z,63.90
2018-02-09T09:02:08.153Z,58.40
2018-02-09T09:03:08.133Z,58.50
2018-02-09T09:04:08.126Z,60.90
2018-02-09T09:05:08.109Z,58.20
2018-02-09T09:06:08.099Z,55.10
2018-02-09T09:07:08.086Z,55.50
2018-02-09T09:08:08.074Z,53.00
2018-02-09T09:09:08.067Z,54.50
2018-02-09T09:10:08.058Z,54.40
2018-02-09T09:11:08.040Z,53.90
2018-02-09T09:12:08.029Z,54.30
2018-02-09T09:13:08.017Z,55.40
2018-02-09T09:14:08.006Z,54.70
2018-02-09T09:15:07.993Z,55.50
2018-02-09T09:16:07.983Z,56.20
2018-02-09T09:17:07.973Z,55.60
2018-02-09T09:18:07.961Z,55.10
2018-02-09T09:19:07.946Z,55.30
2018-02-09T09:20:07.935Z,56.90
2018-02-09T09:21:07.924Z,55.70
2018-02-09T09:22:07.913Z,55.40
2018-02-09T09:23:07.900Z,54.70
2018-02-09T09:24:07.889Z,54.90
2018-02-09T09:25:07.879Z,55.20
2018-02-09T09:26:07.866Z,54.50
2018-02-09T09:27:07.853Z,56.40
2018-02-09T09:28:07.842Z,56.60
2018-02-09T09:29:07.833Z,57.60
2018-02-09T09:30:07.820Z,56.10
2018-02-09T09:31:07.809Z,56.90
2018-02-09T09:32:07.794Z,57.10
2018-02-09T09:33:07.783Z,57.80
2018-02-09T09:34:07.774Z,56.80
2018-02-09T09:35:07.759Z,55.50
2018-02-09T09:36:07.749Z,56.30
2018-02-09T09:37:07.737Z,56.60
2018-02-09T09:38:07.725Z,57.20
2018-02-09T09:39:07.713Z,57.10
2018-02-09T09:40:07.701Z,56.60
2018-02-09T09:41:07.691Z,56.80
2018-02-09T09:42:07.680Z,56.00
2018-02-09T09:43:07.667Z,56.30
2018-02-09T09:44:07.657Z,55.00
2018-02-09T09:45:07.643Z,55.30
2018-02-09T09:46:07.634Z,55.60
2018-02-09T09:47:07.904Z,56.30
2018-02-09T09:48:07.609Z,55.80
2018-02-09T09:49:07.633Z,54.40
2018-02-09T09:50:07.584Z,55.20
2018-02-09T09:51:07.575Z,55.30
2018-02-09T09:52:07.564Z,54.50
2018-02-09T09:53:07.549Z,54.40
2018-02-09T09:54:07.540Z,55.40
2018-02-09T09:55:07.527Z,55.40
2018-02-09T09:56:07.518Z,57.60
2018-02-09T09:57:07.506Z,55.10
2018-02-09T09:58:07.494Z,56.00
2018-02-09T09:59:07.482Z,56.40
2018-02-09T10:00:07.472Z,55.50
2018-02-09T10:01:07.512Z,57.00
2018-02-09T10:02:07.448Z,55.60
2018-02-09T10:03:07.436Z,54.50
2018-02-09T10:04:07.477Z,56.60
2018-02-09T10:05:07.414Z,56.20
2018-02-09T10:06:07.412Z,57.60
2018-02-09T10:07:07.491Z,58.00
2018-02-09T10:08:07.376Z,56.30
2018-02-09T10:09:07.371Z,54.40
2018-02-09T10:10:07.356Z,52.60
2018-02-09T10:11:07.345Z,53.70
2018-02-09T10:12:07.739Z,53.10
2018-02-09T10:13:07.323Z,50.00
2018-02-09T10:14:07.311Z,46.20
2018-02-09T10:15:07.300Z,44.50
2018-02-09T10:16:07.290Z,43.00
2018-02-09T10:17:07.374Z,42.50
2018-02-09T10:18:07.515Z,42.70
2018-02-09T10:19:07.254Z,42.00
2018-02-09T10:20:07.243Z,43.30
2018-02-09T10:21:07.235Z,43.30
2018-02-09T10:22:07.222Z,44.10
2018-02-09T10:23:07.259Z,44.20
2018-02-09T10:24:07.205Z,43.40
2018-02-09T10:25:07.189Z,45.30
2018-02-09T10:26:07.177Z,44.60
2018-02-09T10:27:07.170Z,46.60
2018-02-09T10:28:07.219Z,46.30
2018-02-09T10:29:07.393Z,45.10
2018-02-09T10:30:07.134Z,45.80
2018-02-09T10:31:07.121Z,44.60
2018-02-09T10:32:07.117Z,44.60
2018-02-09T10:33:07.107Z,43.60
2018-02-09T10:34:07.091Z,42.80
2018-02-09T10:35:07.324Z,40.50
2018-02-09T10:36:07.068Z,39.40
2018-02-09T10:37:07.058Z,38.20
2018-02-09T10:38:07.051Z,38.00
2018-02-09T10:39:07.039Z,39.50
2018-02-09T10:40:07.028Z,39.70
2018-02-09T10:41:07.031Z,40.50
2018-02-09T10:42:07.011Z,40.30
2018-02-09T10:43:06.996Z,39.40
2018-02-09T10:44:06.985Z,39.70
2018-02-09T10:45:07.168Z,39.40
2018-02-09T10:46:06.981Z,39.30
2018-02-09T10:47:06.966Z,40.40
2018-02-09T10:48:07.066Z,39.50
2018-02-09T10:49:07.001Z,40.30
2018-02-09T10:50:06.924Z,39.80
2018-02-09T10:51:06.911Z,39.00
2018-02-09T10:52:06.901Z,39.90
2018-02-09T10:53:06.894Z,40.80
2018-02-09T10:54:06.881Z,40.60
2018-02-09T10:55:06.870Z,43.20
2018-02-09T10:56:06.861Z,43.40
2018-02-09T10:57:06.852Z,41.60
2018-02-09T10:58:06.845Z,43.30
2018-02-09T10:59:06.836Z,43.00
2018-02-09T11:00:06.818Z,44.00
2018-02-09T11:01:06.809Z,44.60
2018-02-09T11:02:06.811Z,46.40
2018-02-09T11:03:06.788Z,46.30
2018-02-09T11:04:06.779Z,46.90
2018-02-09T11:05:06.768Z,45.10
2018-02-09T11:06:06.756Z,45.90
2018-02-09T11:07:06.747Z,45.10
2018-02-09T11:08:06.741Z,45.40
2018-02-09T11:09:06.727Z,45.60
2018-02-09T11:10:06.721Z,45.70
2018-02-09T11:11:06.706Z,45.20
2018-02-09T11:12:06.694Z,43.60
2018-02-09T11:13:06.687Z,44.10
2018-02-09T11:14:06.677Z,45.80
2018-02-09T11:15:06.710Z,44.90
2018-02-09T11:16:06.656Z,45.40
2018-02-09T11:17:06.645Z,45.00
2018-02-09T11:18:06.634Z,45.00
2018-02-09T11:19:06.625Z,48.20
2018-02-09T11:20:06.614Z,48.50
2018-02-09T11:21:06.604Z,47.80
2018-02-09T11:22:06.595Z,47.20
2018-02-09T11:23:06.653Z,48.20
2018-02-09T11:24:06.573Z,48.80
2018-02-09T11:25:06.564Z,48.70
2018-02-09T11:26:06.553Z,49.00
2018-02-09T11:27:06.552Z,50.10
2018-02-09T11:28:06.538Z,49.60
2018-02-09T11:29:06.523Z,49.20
2018-02-09T11:30:06.513Z,48.90
2018-02-09T11:31:06.511Z,47.30
2018-02-09T11:32:06.499Z,48.10
2018-02-09T11:33:06.484Z,48.90
2018-02-09T11:34:06.474Z,47.00
2018-02-09T11:35:06.465Z,47.80
2018-02-09T11:36:06.455Z,48.50
2018-02-09T11:37:06.444Z,47.20
2018-02-09T11:38:06.434Z,48.20
2018-02-09T11:39:06.426Z,47.10
2018-02-09T11:40:06.423Z,47.90
2018-02-09T11:41:06.408Z,47.40
2018-02-09T11:42:06.398Z,46.10
2018-02-09T11:43:06.388Z,47.00
2018-02-09T11:44:06.404Z,47.70
2018-02-09T11:45:06.374Z,47.30
2018-02-09T11:46:06.357Z,46.60
2018-02-09T11:47:06.349Z,47.00
2018-02-09T11:48:06.342Z,47.20
2018-02-09T11:49:06.326Z,43.70
2018-02-09T11:50:06.322Z,44.70
2018-02-09T11:51:06.311Z,42.90
2018-02-09T11:52:06.301Z,42.80
2018-02-09T11:53:06.292Z,41.90
2018-02-09T11:54:06.284Z,41.60
2018-02-09T11:55:06.272Z,42.60
2018-02-09T11:56:06.264Z,42.70
2018-02-09T11:57:06.256Z,42.80
2018-02-09T11:58:06.250Z,43.30
2018-02-09T11:59:06.235Z,42.00
2018-02-09T12:00:06.228Z,43.60
2018-02-09T12:01:06.219Z,41.70
2018-02-09T12:02:06.210Z,43.30
2018-02-09T12:03:06.200Z,42.20
2018-02-09T12:04:06.191Z,41.80
2018-02-09T12:05:06.183Z,41.50
2018-02-09T12:06:06.174Z,42.20
2018-02-09T12:07:06.165Z,41.80
2018-02-09T12:08:06.158Z,41.10
2018-02-09T12:09:06.146Z,42.00
2018-02-09T12:10:06.141Z,40.70
2018-02-09T12:11:06.127Z,38.80
2018-02-09T12:12:06.120Z,38.70
2018-02-09T12:13:06.111Z,39.30
2018-02-09T12:14:06.104Z,39.50
2018-02-09T12:15:06.089Z,38.10
2018-02-09T12:16:06.082Z,38.80
2018-02-09T12:17:06.075Z,39.10
2018-02-09T12:18:06.068Z,39.50
2018-02-09T12:19:06.056Z,40.30
2018-02-09T12:20:06.047Z,40.00
2018-02-09T12:21:06.037Z,37.50
2018-02-09T12:22:06.032Z,37.30
2018-02-09T12:23:06.021Z,37.10
2018-02-09T12:24:06.007Z,36.70
2018-02-09T12:25:06.004Z,36.70
2018-02-09T12:26:05.994Z,35.00
2018-02-09T12:27:05.985Z,36.50
2018-02-09T12:28:05.976Z,35.30
2018-02-09T12:29:05.968Z,36.40
2018-02-09T12:30:05.958Z,36.50
2018-02-09T12:31:05.946Z,36.60
2018-02-09T12:32:05.942Z,36.60
2018-02-09T12:33:05.932Z,37.90
2018-02-09T12:34:05.924Z,37.50
2018-02-09T12:35:05.914Z,37.80
2018-02-09T12:36:05.902Z,38.10
2018-02-09T12:37:05.901Z,37.00
2018-02-09T12:38:05.899Z,37.10
2018-02-09T12:39:05.879Z,38.20
2018-02-09T12:40:05.871Z,36.90
2018-02-09T12:41:05.861Z,37.20
2018-02-09T12:42:05.852Z,37.30
2018-02-09T12:43:05.840Z,37.70
2018-02-09T12:44:05.833Z,38.60
2018-02-09T12:45:05.825Z,37.30
2018-02-09T12:46:05.817Z,37.60
2018-02-09T12:47:05.806Z,37.40
2018-02-09T12:48:05.798Z,37.60
2018-02-09T12:49:05.815Z,37.60
2018-02-09T12:50:05.780Z,38.50
2018-02-09T12:51:05.771Z,38.10
2018-02-09T12:52:05.761Z,37.70